createdAt,value
2018-08-18T00:00:22.465Z,22.60
2018-08-18T00:02:53.357Z,22.60
2018-08-18T00:05:23.612Z,22.60
2018-08-18T00:07:51.863Z,22.50
2018-08-18T00:10:21.784Z,22.50
2018-08-18T00:12:50.386Z,22.50
2018-08-18T00:15:20.761Z,22.50
2018-08-18T00:17:49.052Z,22.50
2018-08-18T00:20:21.691Z,22.50
2018-08-18T00:22:50.024Z,22.50
2018-08-18T00:25:18.378Z,22.40
2018-08-18T00:27:46.780Z,22.40
2018-08-18T00:30:20.521Z,22.30
2018-08-18T00:32:48.873Z,22.30
2018-08-18T00:35:17.240Z,22.30
2018-08-18T00:37:45.591Z,22.30
2018-08-18T00:40:13.892Z,22.20
2018-08-18T00:42:42.268Z,22.20
2018-08-18T00:45:12.092Z,22.20
2018-08-18T00:47:40.780Z,22.20
2018-08-18T00:50:10.921Z,22.20
2018-08-18T00:52:39.597Z,22.20
2018-08-18T00:55:07.979Z,22.20
2018-08-18T00:57:36.295Z,22.20
2018-08-18T01:00:06.331Z,22.20
2018-08-18T01:02:35.728Z,22.10
2018-08-18T01:05:04.881Z,22.20
2018-08-18T01:07:33.264Z,22.10
2018-08-18T01:10:02.141Z,22.10
2018-08-18T01:12:30.853Z,22.10
2018-08-18T01:14:59.047Z,22.00
2018-08-18T01:17:27.352Z,22.00
2018-08-18T01:19:57.100Z,21.90
2018-08-18T01:22:25.442Z,21.90
2018-08-18T01:24:54.143Z,21.80
2018-08-18T01:27:22.744Z,21.80
2018-08-18T01:30:05.564Z,21.80
2018-08-18T01:32:34.376Z,21.80
2018-08-18T01:35:02.794Z,21.80
2018-08-18T01:37:31.827Z,21.80
2018-08-18T01:40:00.391Z,21.70
2018-08-18T01:42:31.421Z,21.70
2018-08-18T01:44:59.768Z,21.60
2018-08-18T01:47:28.046Z,21.60
2018-08-18T01:49:57.999Z,21.60
2018-08-18T01:52:26.313Z,21.60
2018-08-18T01:54:54.613Z,21.60
2018-08-18T01:57:23.483Z,21.50
2018-08-18T01:59:52.045Z,21.50
2018-08-18T02:02:24.504Z,21.50
2018-08-18T02:04:53.080Z,21.30
2018-08-18T02:07:24.339Z,21.40
2018-08-18T02:09:52.930Z,21.40
2018-08-18T02:12:21.587Z,21.30
2018-08-18T02:14:49.851Z,21.20
2018-08-18T02:17:29.641Z,21.20
2018-08-18T02:19:58.343Z,21.20
2018-08-18T02:22:27.204Z,21.20
2018-08-18T02:24:55.542Z,21.20
2018-08-18T02:27:23.821Z,21.30
2018-08-18T02:30:04.420Z,21.20
2018-08-18T02:32:35.072Z,21.20
2018-08-18T02:35:03.444Z,21.20
2018-08-18T02:37:31.835Z,21.20
2018-08-18T02:40:00.230Z,21.10
2018-08-18T02:42:28.461Z,21.20
2018-08-18T02:44:56.703Z,21.10
2018-08-18T02:47:25.074Z,21.10
2018-08-18T02:49:54.334Z,21.10
2018-08-18T02:52:24.023Z,21.10
2018-08-18T02:54:53.949Z,21.20
2018-08-18T02:57:26.081Z,21.10
2018-08-18T02:59:56.159Z,21.10
2018-08-18T03:02:24.484Z,21.10
2018-08-18T03:04:52.752Z,21.10
2018-08-18T03:07:21.180Z,21.10
2018-08-18T03:09:49.541Z,21.10
2018-08-18T03:12:17.909Z,21.10
2018-08-18T03:18:01.884Z,21.00
2018-08-18T03:20:30.214Z,21.00
2018-08-18T03:22:58.525Z,21.00
2018-08-18T03:25:44.153Z,21.00
2018-08-18T03:28:17.636Z,21.00
2018-08-18T03:30:49.882Z,20.90
2018-08-18T03:33:19.173Z,21.00
2018-08-18T03:35:49.548Z,21.00
2018-08-18T03:38:18.925Z,20.90
2018-08-18T03:40:47.272Z,20.90
2018-08-18T03:43:19.674Z,20.90
2018-08-18T03:45:48.019Z,20.80
2018-08-18T03:48:20.408Z,20.90
2018-08-18T03:50:53.804Z,20.90
2018-08-18T03:53:23.087Z,20.90
2018-08-18T03:55:51.377Z,20.90
2018-08-18T03:58:20.699Z,20.90
2018-08-18T04:00:49.065Z,20.90
2018-08-18T04:03:17.424Z,20.90
2018-08-18T04:05:46.843Z,20.90
2018-08-18T04:08:15.108Z,20.80
2018-08-18T04:10:44.413Z,20.80
2018-08-18T04:13:12.700Z,20.80
2018-08-18T04:15:47.543Z,20.70
2018-08-18T04:18:24.610Z,20.70
2018-08-18T04:20:53.905Z,20.70
2018-08-18T04:23:41.921Z,20.70
2018-08-18T04:26:14.341Z,20.70
2018-08-18T04:28:42.573Z,20.60
2018-08-18T04:31:13.599Z,20.70
2018-08-18T04:33:53.680Z,20.70
2018-08-18T04:36:22.104Z,20.60
2018-08-18T04:38:50.432Z,20.60
2018-08-18T04:41:18.776Z,20.70
2018-08-18T04:43:48.157Z,20.60
2018-08-18T04:46:29.431Z,20.60
2018-08-18T04:48:57.785Z,20.60
2018-08-18T04:51:28.187Z,20.60
2018-08-18T04:53:57.508Z,20.70
2018-08-18T04:56:26.855Z,20.70
2018-08-18T04:58:55.204Z,20.70
2018-08-18T05:01:24.536Z,20.60
2018-08-18T05:04:04.593Z,20.60
2018-08-18T05:06:43.516Z,20.60
2018-08-18T05:09:14.847Z,20.60
2018-08-18T05:11:43.145Z,20.60
2018-08-18T05:14:12.373Z,20.50
2018-08-18T05:16:45.693Z,20.60
2018-08-18T05:19:24.706Z,20.60
2018-08-18T05:21:54.003Z,20.60
2018-08-18T05:24:26.241Z,20.70
2018-08-18T05:26:55.539Z,20.70
2018-08-18T05:29:23.857Z,20.60
2018-08-18T05:31:56.129Z,20.70
2018-08-18T05:34:24.389Z,20.70
2018-08-18T05:36:52.692Z,20.70
2018-08-18T05:39:21.980Z,20.80
2018-08-18T05:41:51.262Z,20.70
2018-08-18T05:44:19.561Z,20.70
2018-08-18T05:46:49.928Z,20.70
2018-08-18T05:49:18.259Z,20.70
2018-08-18T05:51:48.758Z,20.80
2018-08-18T05:54:21.477Z,20.80
2018-08-18T05:56:57.238Z,20.80
2018-08-18T05:59:26.516Z,20.90
2018-08-18T06:01:55.891Z,20.80
2018-08-18T06:04:33.025Z,20.90
2018-08-18T06:07:05.215Z,20.90
2018-08-18T06:09:48.704Z,20.90
2018-08-18T06:15:07.873Z,20.90
2018-08-18T06:17:45.836Z,21.00
2018-08-18T06:20:16.123Z,21.00
2018-08-18T06:22:51.130Z,21.00
2018-08-18T06:25:31.376Z,21.00
2018-08-18T06:28:01.745Z,21.00
2018-08-18T06:30:31.093Z,21.00
2018-08-18T06:33:06.953Z,21.10
2018-08-18T06:35:39.174Z,21.10
2018-08-18T06:38:23.932Z,21.20
2018-08-18T06:41:03.437Z,21.30
2018-08-18T06:43:33.036Z,21.80
2018-08-18T06:46:02.828Z,22.10
2018-08-18T06:48:37.861Z,22.30
2018-08-18T06:51:07.524Z,22.50
2018-08-18T06:53:43.965Z,22.70
2018-08-18T06:56:16.184Z,22.80
2018-08-18T06:58:51.935Z,23.00
2018-08-18T07:01:26.777Z,23.20
2018-08-18T07:04:02.613Z,23.40
2018-08-18T07:06:44.194Z,23.40
2018-08-18T07:09:12.529Z,23.60
2018-08-18T07:11:42.785Z,23.80
2018-08-18T07:14:14.975Z,23.80
2018-08-18T07:16:45.284Z,24.00
2018-08-18T07:19:22.447Z,24.10
2018-08-18T07:21:55.749Z,24.10
2018-08-18T07:24:25.985Z,24.20
2018-08-18T07:26:58.341Z,24.40
2018-08-18T07:29:34.544Z,24.50
2018-08-18T07:32:10.422Z,24.70
2018-08-18T07:34:39.673Z,24.80
2018-08-18T07:37:12.043Z,24.90
2018-08-18T07:39:40.265Z,25.00
2018-08-18T07:42:09.876Z,25.20
2018-08-18T07:44:38.227Z,25.30
2018-08-18T07:47:07.438Z,25.30
2018-08-18T07:49:36.734Z,25.40
2018-08-18T07:52:04.993Z,25.30
2018-08-18T07:54:37.260Z,25.60
2018-08-18T07:57:09.547Z,25.70
2018-08-18T07:59:37.923Z,25.50
2018-08-18T08:02:08.245Z,25.50
2018-08-18T08:04:40.612Z,25.70
2018-08-18T08:07:10.484Z,25.80
2018-08-18T08:09:38.847Z,25.90
2018-08-18T08:12:08.250Z,26.00
2018-08-18T08:14:39.648Z,26.10
2018-08-18T08:17:08.138Z,26.10
2018-08-18T08:19:36.532Z,26.20
2018-08-18T08:22:04.844Z,26.40
2018-08-18T08:24:33.173Z,26.50
2018-08-18T08:27:01.453Z,26.50
2018-08-18T08:29:39.611Z,26.50
2018-08-18T08:32:09.421Z,26.70
2018-08-18T08:34:43.238Z,26.80
2018-08-18T08:37:12.005Z,26.80
2018-08-18T08:39:40.577Z,26.80
2018-08-18T08:42:08.975Z,27.00
2018-08-18T08:44:37.523Z,27.10
2018-08-18T08:47:13.472Z,27.30
2018-08-18T08:49:42.844Z,27.50
2018-08-18T08:52:13.201Z,27.60
2018-08-18T08:54:45.417Z,27.70
2018-08-18T08:57:15.764Z,27.70
2018-08-18T08:59:46.660Z,27.90
2018-08-18T09:02:21.672Z,27.90
2018-08-18T09:04:53.952Z,28.00
2018-08-18T09:07:23.188Z,28.10
2018-08-18T09:09:58.199Z,28.30
2018-08-18T09:12:27.497Z,28.30
2018-08-18T09:15:05.166Z,28.40
2018-08-18T09:17:33.558Z,28.40
2018-08-18T09:20:14.458Z,28.50
2018-08-18T09:22:58.265Z,28.50
2018-08-18T09:25:36.198Z,28.60
2018-08-18T09:28:05.564Z,28.60
2018-08-18T09:30:36.568Z,28.50
2018-08-18T09:33:07.348Z,28.50
2018-08-18T09:35:54.291Z,28.60
2018-08-18T09:38:22.709Z,28.70
2018-08-18T09:40:53.051Z,28.90
2018-08-18T09:43:32.882Z,28.90
2018-08-18T09:46:01.270Z,29.20
2018-08-18T09:48:29.631Z,29.20
2018-08-18T09:50:59.087Z,29.30
2018-08-18T09:53:27.474Z,29.40
2018-08-18T09:55:56.781Z,29.30
2018-08-18T09:58:25.216Z,29.70
2018-08-18T10:00:53.504Z,29.90
2018-08-18T10:03:21.803Z,30.00
2018-08-18T10:05:50.176Z,30.10
2018-08-18T10:08:18.565Z,30.10
2018-08-18T10:10:47.857Z,29.80
2018-08-18T10:13:16.191Z,29.80
2018-08-18T10:15:45.512Z,29.90
2018-08-18T10:18:15.873Z,29.90
2018-08-18T10:20:51.006Z,29.90
2018-08-18T10:23:19.930Z,29.80
2018-08-18T10:25:48.248Z,29.90
2018-08-18T10:28:18.227Z,30.20
2018-08-18T10:30:46.547Z,30.20
2018-08-18T10:33:14.988Z,30.30
2018-08-18T10:35:43.796Z,30.20
2018-08-18T10:38:13.150Z,30.20
2018-08-18T10:40:41.481Z,30.30
2018-08-18T10:43:15.719Z,30.10
2018-08-18T10:45:45.441Z,30.20
2018-08-18T10:48:13.850Z,30.40
2018-08-18T10:50:54.137Z,30.30
2018-08-18T10:53:22.444Z,30.30
2018-08-18T10:55:50.699Z,30.20
2018-08-18T10:58:31.398Z,30.30
2018-08-18T11:01:00.144Z,30.30
2018-08-18T11:03:28.764Z,30.40
2018-08-18T11:05:59.121Z,30.60
2018-08-18T11:08:27.572Z,30.70
2018-08-18T11:10:58.377Z,30.80
2018-08-18T11:13:30.137Z,30.90
2018-08-18T11:15:58.509Z,31.20
2018-08-18T11:18:26.819Z,31.20
2018-08-18T11:20:55.195Z,31.30
2018-08-18T11:23:23.441Z,31.40
2018-08-18T11:25:53.109Z,31.30
2018-08-18T11:28:22.364Z,31.60
2018-08-18T11:30:51.775Z,31.40
2018-08-18T11:33:40.450Z,31.40
2018-08-18T11:36:09.804Z,31.40
2018-08-18T11:38:39.178Z,31.40
2018-08-18T11:41:07.532Z,31.50
2018-08-18T11:43:39.816Z,31.60
2018-08-18T11:46:08.226Z,31.30
2018-08-18T11:48:36.528Z,31.30
2018-08-18T11:51:06.923Z,31.50
2018-08-18T11:53:40.981Z,31.60
2018-08-18T11:56:09.235Z,31.50
2018-08-18T11:58:37.530Z,31.70
2018-08-18T12:01:05.856Z,31.70
2018-08-18T12:03:35.264Z,31.70
2018-08-18T12:06:04.838Z,31.90
2018-08-18T12:08:34.444Z,31.90
2018-08-18T12:11:04.138Z,32.00
2018-08-18T12:13:37.716Z,32.10
2018-08-18T12:16:11.229Z,32.10
2018-08-18T12:18:40.988Z,32.00
2018-08-18T12:21:09.481Z,31.90
2018-08-18T12:23:39.282Z,31.90
2018-08-18T12:26:15.385Z,31.90
2018-08-18T12:28:46.601Z,32.10
2018-08-18T12:31:20.541Z,32.00
2018-08-18T12:33:48.905Z,31.80
2018-08-18T12:36:17.306Z,31.70
2018-08-18T12:38:48.948Z,31.70
2018-08-18T12:41:17.785Z,31.50
2018-08-18T12:43:48.592Z,31.60
2018-08-18T12:46:18.234Z,31.60
2018-08-18T12:48:52.773Z,31.50
2018-08-18T12:51:21.586Z,31.50
2018-08-18T12:53:51.340Z,31.20
2018-08-18T12:56:23.600Z,31.30
2018-08-18T12:58:51.869Z,31.50
2018-08-18T13:01:38.535Z,31.50
2018-08-18T13:04:09.225Z,31.50
2018-08-18T13:06:42.891Z,31.60
2018-08-18T13:09:13.680Z,31.60
2018-08-18T13:11:43.079Z,31.60
2018-08-18T13:14:11.649Z,31.40
2018-08-18T13:16:40.013Z,31.10
2018-08-18T13:19:08.574Z,31.10
2018-08-18T13:21:36.986Z,31.20
2018-08-18T13:24:05.305Z,31.30
2018-08-18T13:26:33.753Z,31.20
2018-08-18T13:29:02.692Z,31.00
2018-08-18T13:31:36.489Z,30.70
2018-08-18T13:34:04.871Z,30.60
2018-08-18T13:36:34.142Z,30.70
2018-08-18T13:39:02.790Z,30.70
2018-08-18T13:41:31.176Z,30.50
2018-08-18T13:44:00.791Z,30.50
2018-08-18T13:46:40.449Z,30.60
2018-08-18T13:49:08.709Z,30.50
2018-08-18T13:51:36.960Z,30.40
2018-08-18T13:54:05.429Z,30.30
2018-08-18T13:56:33.729Z,30.30
2018-08-18T13:59:02.024Z,30.30
2018-08-18T14:01:34.547Z,30.40
2018-08-18T14:04:03.027Z,30.50
2018-08-18T14:06:40.376Z,30.50
2018-08-18T14:09:09.681Z,30.40
2018-08-18T14:11:38.383Z,30.30
2018-08-18T14:14:07.761Z,30.30
2018-08-18T14:16:37.056Z,30.10
2018-08-18T14:19:07.520Z,30.10
2018-08-18T14:21:35.862Z,30.10
2018-08-18T14:24:05.058Z,30.00
2018-08-18T14:26:33.337Z,30.00
2018-08-18T14:29:01.599Z,30.00
2018-08-18T14:31:30.014Z,30.00
2018-08-18T14:33:58.321Z,30.00
2018-08-18T14:36:27.554Z,30.00
2018-08-18T14:38:55.836Z,29.90
2018-08-18T14:41:37.096Z,29.80
2018-08-18T14:44:05.561Z,29.80
2018-08-18T14:46:34.010Z,29.70
2018-08-18T14:49:02.169Z,29.70
2018-08-18T14:51:30.636Z,29.70
2018-08-18T14:53:58.888Z,29.60
2018-08-18T14:56:27.184Z,29.60
2018-08-18T14:58:55.432Z,29.60
2018-08-18T15:01:23.770Z,29.60
2018-08-18T15:03:52.125Z,29.50
2018-08-18T15:06:20.429Z,29.40
2018-08-18T15:08:48.859Z,29.40
2018-08-18T15:11:17.144Z,29.40
2018-08-18T15:13:45.428Z,29.40
2018-08-18T15:16:14.789Z,29.40
2018-08-18T15:18:43.014Z,29.40
2018-08-18T15:21:11.435Z,29.40
2018-08-18T15:23:39.562Z,29.40
2018-08-18T15:26:07.837Z,29.30
2018-08-18T15:28:37.158Z,29.20
2018-08-18T15:31:05.534Z,29.20
2018-08-18T15:33:34.837Z,29.20
2018-08-18T15:36:03.130Z,29.10
2018-08-18T15:38:43.329Z,29.10
2018-08-18T15:41:11.957Z,29.10
2018-08-18T15:43:40.308Z,29.10
2018-08-18T15:46:08.603Z,29.10
2018-08-18T15:48:39.549Z,29.10
2018-08-18T15:51:08.848Z,29.10
2018-08-18T15:53:47.264Z,29.10
2018-08-18T15:56:15.719Z,29.00
2018-08-18T15:58:44.943Z,28.90
2018-08-18T16:01:13.201Z,28.90
2018-08-18T16:03:41.471Z,28.80
2018-08-18T16:06:10.779Z,28.80
2018-08-18T16:08:39.041Z,28.80
2018-08-18T16:11:07.340Z,28.70
2018-08-18T16:13:35.602Z,28.70
2018-08-18T16:16:03.918Z,28.60
2018-08-18T16:18:32.349Z,28.60
2018-08-18T16:21:05.265Z,28.60
2018-08-18T16:23:33.578Z,28.60
2018-08-18T16:26:01.921Z,28.60
2018-08-18T16:28:33.712Z,28.60
2018-08-18T16:31:02.127Z,28.50
2018-08-18T16:33:30.592Z,28.60
2018-08-18T16:35:58.908Z,28.60
2018-08-18T16:38:27.203Z,28.60
2018-08-18T16:40:55.628Z,28.60
2018-08-18T16:43:23.918Z,28.50
2018-08-18T16:45:52.226Z,28.50
2018-08-18T16:48:20.519Z,28.50
2018-08-18T16:50:48.906Z,28.40
2018-08-18T16:53:17.256Z,28.40
2018-08-18T16:55:46.362Z,28.30
2018-08-18T16:58:14.757Z,28.30
2018-08-18T17:00:59.532Z,28.30
2018-08-18T17:03:36.324Z,28.30
2018-08-18T17:06:05.458Z,28.20
2018-08-18T17:08:34.749Z,28.20
2018-08-18T17:11:03.047Z,28.20
2018-08-18T17:13:34.546Z,28.10
2018-08-18T17:16:03.211Z,28.00
2018-08-18T17:18:31.558Z,28.10
2018-08-18T17:21:01.094Z,28.00
2018-08-18T17:23:31.213Z,28.00
2018-08-18T17:25:59.618Z,27.90
2018-08-18T17:28:29.815Z,27.90
2018-08-18T17:30:58.249Z,27.90
2018-08-18T17:33:27.789Z,27.90
2018-08-18T17:35:56.140Z,27.80
2018-08-18T17:38:24.434Z,27.80
2018-08-18T17:40:52.736Z,27.80
2018-08-18T17:43:21.510Z,27.70
2018-08-18T17:45:52.776Z,27.70
2018-08-18T17:48:21.695Z,27.70
2018-08-18T17:50:51.163Z,27.60
2018-08-18T17:53:19.533Z,27.60
2018-08-18T17:55:53.428Z,27.60
2018-08-18T17:58:21.750Z,27.50
2018-08-18T18:00:50.129Z,27.50
2018-08-18T18:03:18.441Z,27.40
2018-08-18T18:05:46.718Z,27.40
2018-08-18T18:08:14.999Z,27.30
2018-08-18T18:10:43.282Z,27.30
2018-08-18T18:13:17.594Z,27.20
2018-08-18T18:15:47.249Z,27.20
2018-08-18T18:18:18.375Z,27.10
2018-08-18T18:20:48.619Z,27.10
2018-08-18T18:23:17.508Z,27.00
2018-08-18T18:25:45.904Z,27.00
2018-08-18T18:28:14.313Z,26.90
2018-08-18T18:30:42.605Z,26.80
2018-08-18T18:33:13.488Z,26.80
2018-08-18T18:35:41.864Z,26.70
2018-08-18T18:38:10.193Z,26.70
2018-08-18T18:40:43.637Z,26.60
2018-08-18T18:43:12.003Z,26.50
2018-08-18T18:45:40.416Z,26.50
2018-08-18T18:48:11.653Z,26.40
2018-08-18T18:50:40.009Z,26.40
2018-08-18T18:53:08.433Z,26.30
2018-08-18T18:55:45.276Z,26.20
2018-08-18T18:58:14.517Z,26.10
2018-08-18T19:00:50.859Z,26.10
2018-08-18T19:03:19.267Z,26.00
2018-08-18T19:05:48.228Z,25.90
2018-08-18T19:08:18.015Z,25.90
2018-08-18T19:10:46.571Z,25.80
2018-08-18T19:13:14.857Z,25.80
2018-08-18T19:15:43.136Z,25.70
2018-08-18T19:18:12.181Z,25.70
2018-08-18T19:20:40.499Z,25.60
2018-08-18T19:23:14.215Z,25.60
2018-08-18T19:25:43.745Z,25.50
2018-08-18T19:28:18.416Z,25.40
2018-08-18T19:30:47.788Z,25.40
2018-08-18T19:33:16.644Z,25.30
2018-08-18T19:35:47.030Z,25.30
2018-08-18T19:38:15.897Z,25.20
2018-08-18T19:40:45.462Z,25.20
2018-08-18T19:43:20.679Z,25.10
2018-08-18T19:45:49.304Z,25.10
2018-08-18T19:48:19.200Z,25.10
2018-08-18T19:50:53.824Z,25.00
2018-08-18T19:53:25.803Z,24.90
2018-08-18T19:55:55.229Z,24.90
2018-08-18T19:58:24.466Z,24.80
2018-08-18T20:00:52.860Z,24.70
2018-08-18T20:03:21.648Z,24.70
2018-08-18T20:05:49.965Z,24.70
2018-08-18T20:08:20.241Z,24.60
2018-08-18T20:10:55.322Z,24.50
2018-08-18T20:13:46.612Z,24.50
2018-08-18T20:16:14.942Z,24.50
2018-08-18T20:18:43.196Z,24.40
2018-08-18T20:21:11.437Z,24.40
2018-08-18T20:26:42.692Z,24.20
2018-08-18T20:29:11.020Z,24.10
2018-08-18T20:31:44.658Z,24.10
2018-08-18T20:34:12.894Z,24.10
2018-08-18T20:36:41.210Z,24.00
2018-08-18T20:39:09.575Z,23.90
2018-08-18T20:41:37.859Z,23.90
2018-08-18T20:44:06.261Z,23.80
2018-08-18T20:46:34.663Z,23.80
2018-08-18T20:49:03.077Z,23.80
2018-08-18T20:54:11.824Z,23.80
2018-08-18T20:56:40.209Z,23.70
2018-08-18T20:59:08.552Z,23.70
2018-08-18T21:01:36.889Z,23.70
2018-08-18T21:04:05.229Z,23.60
2018-08-18T21:06:33.495Z,23.60
2018-08-18T21:09:08.420Z,23.50
2018-08-18T21:11:36.700Z,23.50
2018-08-18T21:14:05.430Z,23.50
2018-08-18T21:16:33.756Z,23.50
2018-08-18T21:19:02.836Z,23.50
2018-08-18T21:21:33.354Z,23.50
2018-08-18T21:24:01.855Z,23.50
2018-08-18T21:26:30.345Z,23.40
2018-08-18T21:28:58.756Z,23.40
2018-08-18T21:31:34.474Z,23.40
2018-08-18T21:34:04.023Z,23.40
2018-08-18T21:36:33.639Z,23.30
2018-08-18T21:39:04.843Z,23.30
2018-08-18T21:41:35.324Z,23.30
2018-08-18T21:44:04.444Z,23.30
2018-08-18T21:46:32.760Z,23.30
2018-08-18T21:49:01.854Z,23.20
2018-08-18T21:51:30.132Z,23.10
2018-08-18T21:53:58.389Z,23.10
2018-08-18T21:56:47.728Z,23.10
2018-08-18T21:59:18.414Z,23.00
2018-08-18T22:01:49.817Z,23.00
2018-08-18T22:04:22.083Z,23.00
2018-08-18T22:06:50.676Z,22.90
2018-08-18T22:09:28.213Z,22.90
2018-08-18T22:11:56.472Z,22.90
2018-08-18T22:14:24.792Z,22.90
2018-08-18T22:16:55.345Z,22.80
2018-08-18T22:19:26.428Z,22.80
2018-08-18T22:22:00.692Z,22.70
2018-08-18T22:24:34.262Z,22.70
2018-08-18T22:27:02.736Z,22.70
2018-08-18T22:29:30.992Z,22.70
2018-08-18T22:31:59.673Z,22.60
2018-08-18T22:34:27.960Z,22.60
2018-08-18T22:37:01.556Z,22.50
2018-08-18T22:39:29.901Z,22.50
2018-08-18T22:41:58.204Z,22.50
2018-08-18T22:44:26.508Z,22.40
2018-08-18T22:46:54.760Z,22.40
2018-08-18T22:49:23.072Z,22.30
2018-08-18T22:51:51.439Z,22.20
2018-08-18T22:54:19.752Z,22.20
2018-08-18T22:56:52.312Z,22.10
2018-08-18T22:59:20.687Z,22.00
2018-08-18T23:01:49.065Z,22.00
2018-08-18T23:04:29.028Z,22.00
2018-08-18T23:06:58.007Z,21.90
2018-08-18T23:09:31.348Z,21.90
2018-08-18T23:12:02.448Z,21.90
2018-08-18T23:14:33.917Z,21.80
2018-08-18T23:17:02.786Z,21.80
2018-08-18T23:19:32.183Z,21.80
2018-08-18T23:22:00.957Z,21.70
2018-08-18T23:24:39.094Z,21.70
2018-08-18T23:27:07.494Z,21.70
2018-08-18T23:29:35.841Z,21.70
2018-08-18T23:32:13.971Z,21.70
2018-08-18T23:34:42.325Z,21.60
2018-08-18T23:37:17.039Z,21.70
2018-08-18T23:39:45.340Z,21.60
2018-08-18T23:42:17.287Z,21.60
2018-08-18T23:44:45.906Z,21.50
2018-08-18T23:47:14.290Z,21.50
2018-08-18T23:49:42.639Z,21.50
2018-08-18T23:52:11.066Z,21.40
2018-08-18T23:54:40.457Z,21.50
2018-08-18T23:57:08.824Z,21.40
2018-08-18T23:59:37.210Z,21.40
